CheckWX is a tool to help pilots better visualize weather data.  It is not intended as a substitute for an official pre-flight weather briefing.

09:46:08 UTC

FAPE METAR
Port Elizabeth Airport
Port Elizabeth, South Africa
Current

46 mins ago

FAPE 200900Z 24022KT 9999 BKN020 22/18 Q1011 NOSIG
Observed
Feb-20 @ 09:00 UTC
Wind
  • 240° at 22 KTS
Visibility
10,000+ meters
Flight Rules
MVFR
Cloud Levels
  • Broken at 2,000' AGL
Temperature
22°C / 72°F
Dewpoint
18°C / 64°F
Humidity
78%
Altimeter
29.85" Hg
Pressure
1010.92 hPa
Previous

1 hour ago

FAPE 200831Z 24025G36KT 9999 SCT021 24/18 Q1010 NOSIG
Observed
Feb-20 @ 08:31 UTC
Wind
  • 240° at 25 KTS
  • Gusting to 36 KTS
Visibility
10,000+ meters
Flight Rules
VFR
Cloud Levels
  • Scattered at 2,100' AGL
Temperature
24°C / 75°F
Dewpoint
18°C / 64°F
Humidity
69%
Altimeter
29.82" Hg
Pressure
1009.92 hPa
Previous

2 hours ago

FAPE 200801Z 24031G41KT 9999 FEW021 22/18 Q1008 NOSIG
Observed
Feb-20 @ 08:01 UTC
Wind
  • 240° at 31 KTS
  • Gusting to 41 KTS
Visibility
10,000+ meters
Flight Rules
VFR
Cloud Levels
  • Few at 2,100' AGL
Temperature
22°C / 72°F
Dewpoint
18°C / 64°F
Humidity
78%
Altimeter
29.76" Hg
Pressure
1007.92 hPa